• Join FlightAware (Why Join?)
  • Login
  • US Flag 
01:57AM EDT


 

Airport Tracker/Info


-or-


 

Live Flight TrackerFlight Track Log ✈ UAL1540 ✈ 16-Jul-2013 ✈ KIAH - MHTG / TGU

Flight Track Log - Related Links

Times and Time Zones

All times are in EDT time to prevent confusion due to time zone crossing. See the UAL1540 flight status page for this flight to view local times or setup timezone preferences in your user account.

Time Position Orientation Groundspeed Altitude Reporting Facility
EDT Latitude Longitude Course Direction KTS MPH feet Rate Location/Type
10:42AM 29.9594 -95.3414 147° Southeast 160 184 800  Level Houston Center
10:43AM 29.9356 -95.3106 132° Southeast 189 217 2,200 2,400 Climbing Houston Center
10:44AM 29.9144 -95.2756 125° Southeast 208 239 4,100 2,940 Climbing Houston Center
10:45AM 29.6720 -95.1332 152° Southeast  Level FlightAware Approximate
10:45AM 29.8728 -95.2083 126° Southeast 250 288 7,200  Level Houston Center
10:46AM 29.5679 -95.0674 150° Southeast  Level FlightAware Approximate
10:46AM 29.8031 -95.1664 152° Southeast 284 327 10,500  Level Houston Center
10:47AM 29.4651 -94.9988 147° Southeast  Level FlightAware Approximate
10:47AM 29.7244 -95.1219 154° Southeast 306 352 12,300  Level Houston Center
10:48AM 29.3656 -94.9242 147° Southeast  Level FlightAware Approximate
10:48AM 29.6272 -95.0672 154° Southeast 365 420 15,100  Level Houston Center
10:49AM 29.5308 -95.0111 153° Southeast 379 436 17,700 2,340 Climbing Houston Center
10:50AM 29.4456 -94.9311 141° Southeast 393 452 20,000 2,100 Climbing Houston Center
10:51AM 29.3611 -94.8436 138° Southeast 406 467 22,100 1,920 Climbing Houston Center
10:52AM 29.2575 -94.7347 137° Southeast 419 482 24,000 1,380 Climbing Houston Center
10:53AM 29.1678 -94.6422 138° Southeast 432 497 25,000 480 Climbing Houston Center
10:54AM 29.0789 -94.5506 138° Southeast 432 497 25,000  Level Houston Center
10:55AM 28.9781 -94.4778 148° Southeast 429 494 25,000 480 Level Houston Center
10:56AM 28.8794 -94.4011 146° Southeast 427 491 26,100 1,260 Climbing Houston Center
10:57AM 28.7778 -94.3233 146° Southeast 437 503 27,700 960 Climbing Houston Center
10:58AM 28.6731 -94.2419 146° Southeast 450 518 28,100 720 Climbing Houston Center
10:59AM 28.5472 -94.1469 146° Southeast 453 521 29,300 1,380 Climbing Houston Center
11:00AM 28.4417 -94.0656 146° Southeast 458 527 31,000 960 Climbing Houston Center
11:01AM 28.3369 -93.9869 147° Southeast 453 521 31,300 960 Climbing Houston Center
11:02AM 28.2339 -93.9097 147° Southeast 446 513 33,000 960 Climbing Houston Center
11:03AM 28.1308 -93.8319 146° Southeast 445 512 33,400 960 Climbing Houston Center
11:04AM 28.0283 -93.7547 146° Southeast 442 509 35,000 1,500 Climbing Houston Center
11:05AM 27.9072 -93.6639 146° Southeast 436 502 36,600 960 Climbing Houston Center
11:06AM 27.8058 -93.5875 146° Southeast 437 503 37,000 180 Climbing Houston Center
11:07AM 27.7003 -93.5081 146° Southeast 452 520 37,000  Level Houston Center
11:08AM 27.5947 -93.4283 146° Southeast 457 526 37,000  Level Houston Center
11:09AM 27.4800 -93.3411 146° Southeast 457 526 37,000  Level Houston Center
11:10AM 27.3833 -93.2725 148° Southeast 454 522 37,100  Climbing Houston Center
11:11AM 27.2697 -93.1878 146° Southeast 451 519 37,000  Descending Houston Center
11:13AM 27.1753 -93.1142 145° Southeast 454 522 37,100  Climbing Houston Center
11:14AM 27.0481 -93.0258 148° Southeast 449 517 37,100 -60 Level Houston Center
11:15AM 26.9350 -92.9403 146° Southeast 450 518 37,000 -60 Descending Houston Center
11:16AM 26.8297 -92.8672 148° Southeast 448 516 37,000  Level Houston Center
11:17AM 26.7250 -92.7914 147° Southeast 448 516 37,000  Level Houston Center
11:19AM 26.5318 -92.6623 149° Southeast  Level FlightAware Approximate
11:26AM 25.7988 -92.1792 152° Southeast  Level FlightAware Approximate
11:27AM 25.6917 -92.1150 152° Southeast  Level FlightAware Approximate
11:28AM 25.5879 -92.0448 148° Southeast  Level FlightAware Approximate
11:29AM 25.4848 -91.9733 149° Southeast  Level FlightAware Approximate
11:30AM 25.3801 -91.9047 149° Southeast  Level FlightAware Approximate
11:31AM 25.2753 -91.8362 149° Southeast  Level FlightAware Approximate
11:32AM 25.1706 -91.7678 149° Southeast  Level FlightAware Approximate
11:33AM 25.0658 -91.6996 149° Southeast  Level FlightAware Approximate
11:34AM 24.9610 -91.6314 149° Southeast  Level FlightAware Approximate
11:35AM 24.8561 -91.5634 150° Southeast  Level FlightAware Approximate
11:36AM 24.7512 -91.4955 150° Southeast  Level FlightAware Approximate
11:37AM 24.6463 -91.4277 150° Southeast  Level FlightAware Approximate
11:38AM 24.5414 -91.3600 150° Southeast  Level FlightAware Approximate
11:39AM 24.4325 -91.3008 156° South  Level FlightAware Approximate
11:40AM 24.3210 -91.2473 156° South  Level FlightAware Approximate
11:41AM 24.2096 -91.1938 156° South  Level FlightAware Approximate
11:42AM 24.0981 -91.1404 156° South  Level FlightAware Approximate
11:43AM 23.9865 -91.0873 157° South  Level FlightAware Approximate
11:44AM 23.8749 -91.0342 157° South  Level FlightAware Approximate
11:45AM 23.7633 -90.9813 157° South  Level FlightAware Approximate
11:46AM 23.6517 -90.9285 157° South  Level FlightAware Approximate
11:47AM 23.5400 -90.8758 157° South  Level FlightAware Approximate
11:48AM 23.4284 -90.8230 156° South  Level FlightAware Approximate
11:49AM 23.3171 -90.7695 156° South  Level FlightAware Approximate
11:50AM 23.2057 -90.7162 156° South  Level FlightAware Approximate
11:51AM 23.0943 -90.6630 156° South  Level FlightAware Approximate
11:52AM 22.9829 -90.6098 156° South  Level FlightAware Approximate
11:53AM 22.8715 -90.5568 156° South  Level FlightAware Approximate
11:54AM 22.7601 -90.5038 156° South  Level FlightAware Approximate
11:55AM 22.6486 -90.4509 156° South  Level FlightAware Approximate
11:56AM 22.5372 -90.3981 156° South  Level FlightAware Approximate
11:57AM 22.4257 -90.3454 156° South  Level FlightAware Approximate
11:58AM 22.3142 -90.2927 156° South  Level FlightAware Approximate
11:59AM 22.2027 -90.2402 156° South  Level FlightAware Approximate
12:00PM 22.0912 -90.1877 156° South  Level FlightAware Approximate
12:01PM 21.9796 -90.1354 156° South  Level FlightAware Approximate
12:02PM 21.8680 -90.0831 156° South  Level FlightAware Approximate
12:03PM 21.7565 -90.0308 157° South  Level FlightAware Approximate
12:04PM 21.6448 -89.9787 157° South  Level FlightAware Approximate
12:05PM 21.5330 -89.9273 157° South  Level FlightAware Approximate
12:06PM 21.4208 -89.8767 157° South  Level FlightAware Approximate
12:07PM 21.3085 -89.8263 157° South  Level FlightAware Approximate
12:08PM 21.1968 -89.7747 156° South  Level FlightAware Approximate
12:09PM 21.0855 -89.7220 156° South  Level FlightAware Approximate
12:10PM 20.9742 -89.6693 156° South  Level FlightAware Approximate
12:11PM 20.8617 -89.6198 158° South  Level FlightAware Approximate
12:12PM 20.7485 -89.5721 158° South  Level FlightAware Approximate
12:13PM 20.6353 -89.5245 159° South  Level FlightAware Approximate
12:14PM 20.5217 -89.4780 159° South  Level FlightAware Approximate
12:15PM 20.4080 -89.4318 159° South  Level FlightAware Approximate
12:16PM 20.2943 -89.3857 159° South  Level FlightAware Approximate
12:17PM 20.1806 -89.3396 159° South  Level FlightAware Approximate
12:18PM 20.0668 -89.2936 159° South  Level FlightAware Approximate
12:19PM 19.9529 -89.2480 160° South  Level FlightAware Approximate
12:20PM 19.8389 -89.2029 160° South  Level FlightAware Approximate
12:21PM 19.7249 -89.1579 160° South  Level FlightAware Approximate
12:22PM 19.6108 -89.1130 160° South  Level FlightAware Approximate
12:23PM 19.4967 -89.0681 160° South  Level FlightAware Approximate
12:24PM 19.3827 -89.0232 160° South  Level FlightAware Approximate
12:25PM 19.2686 -88.9785 160° South  Level FlightAware Approximate
12:26PM 19.1545 -88.9338 160° South  Level FlightAware Approximate
12:27PM 19.0404 -88.8891 160° South  Level FlightAware Approximate
12:28PM 18.9262 -88.8446 160° South  Level FlightAware Approximate
12:29PM 18.8121 -88.8000 160° South  Level FlightAware Approximate
12:30PM 18.6980 -88.7556 160° South  Level FlightAware Approximate
12:31PM 18.5838 -88.7112 160° South  Level FlightAware Approximate
12:32PM 18.4697 -88.6668 160° South  Level FlightAware Approximate
12:33PM 18.3552 -88.6233 161° South  Level FlightAware Approximate
12:34PM 18.2400 -88.5820 161° South  Level FlightAware Approximate
12:35PM 18.1248 -88.5409 161° South  Level FlightAware Approximate
12:36PM 18.0096 -88.4998 161° South  Level FlightAware Approximate
12:37PM 17.8949 -88.4572 157° South  Level FlightAware Approximate
12:38PM 17.7825 -88.4083 157° South  Level FlightAware Approximate
12:39PM 17.6701 -88.3594 157° South  Level FlightAware Approximate
12:40PM 17.5577 -88.3106 158° South  Level FlightAware Approximate
12:41PM 17.4398 -88.2812 169° South  Level FlightAware Approximate
12:42PM 17.3203 -88.2573 169° South  Level FlightAware Approximate
12:43PM 17.2008 -88.2335 169° South  Level FlightAware Approximate
12:44PM 17.0811 -88.2103 170° South  Level FlightAware Approximate
12:45PM 16.9612 -88.1888 170° South  Level FlightAware Approximate
12:46PM 16.8413 -88.1673 170° South  Level FlightAware Approximate
12:47PM 16.7214 -88.1459 170° South  Level FlightAware Approximate
12:48PM 16.6015 -88.1245 170° South  Level FlightAware Approximate
12:49PM 16.4824 -88.1032 170° South  Level FlightAware Approximate
12:50PM 16.3633 -88.0820 170° South  Level FlightAware Approximate
12:51PM 16.2441 -88.0608 170° South  Level FlightAware Approximate
12:52PM 16.1258 -88.0356 166° South  Level FlightAware Approximate
12:53PM 16.0067 -88.0097 168° South  Level FlightAware Approximate
12:54PM 15.8876 -87.9842 168° South  Level FlightAware Approximate
12:55PM 15.7684 -87.9587 168° South  Level FlightAware Approximate
12:56PM 15.6492 -87.9333 180° South  Level FlightAware Approximate
12:57PM 15.5296 -87.9157 166° South  Level FlightAware Approximate
12:58PM 15.4154 -87.8744 154° Southeast  Level FlightAware Approximate
12:59PM 15.3058 -87.8196 154° Southeast  Level FlightAware Approximate
01:00PM 15.1925 -87.7737 159° South  Level FlightAware Approximate
01:01PM 15.0803 -87.7250 156° South  Level FlightAware Approximate
01:02PM 14.9696 -87.6729 156° South  Level FlightAware Approximate
01:03PM 14.8588 -87.6208 156° South  Level FlightAware Approximate
01:04PM 14.7492 -87.5662 154° Southeast  Level FlightAware Approximate
01:05PM 14.6413 -87.5081 152° Southeast  Level FlightAware Approximate
01:06PM 14.5322 -87.4529 159° South  Level FlightAware Approximate
01:07PM 14.4188 -87.4075 159° South  Level FlightAware Approximate
01:08PM 14.3075 -87.3570 157° South  Level FlightAware Approximate
01:09PM 14.1950 -87.3094 162° South  Level FlightAware Approximate
01:10PM 14.0924 -87.2462 154° Southeast  Level FlightAware Approximate
01:11PM 14.0572 -87.2167 North  Level FlightAware Approximate
01:12PM 14.0667 -87.2167 North  Level FlightAware Approximate
01:13PM 14.0609 -87.2172 North  Level Estimated
01:14PM 14.0667 -87.2167 North  Level FlightAware Approximate
01:15PM 14.0609 -87.2172 North  Level Estimated